Time;durP1;ratioP1;P1;durP2;ratioP2;P2;SDS_P1;SDS_P2;PMS_P1;PMS_P2;Temp;Humidity;BMP_temperature;BMP_pressure;BME280_temperature;BME280_humidity;BME280_pressure;Samples;Min_cycle;Max_cycle;Signal;HPM_P1;HPM_P2
2021/01/19 00:01:12;;;;;;;5.97;1.88;;;14.70;99.90;;;;;;5011465;28;20026;-65
2021/01/19 00:03:38;;;;;;;3.50;1.60;;;14.70;99.90;;;;;;5010795;28;20047;-64
2021/01/19 00:06:05;;;;;;;6.30;2.05;;;14.70;99.90;;;;;;5010892;28;20022;-64
2021/01/19 00:08:33;;;;;;;4.70;1.70;;;14.70;99.90;;;;;;5010842;28;20034;-65
2021/01/19 00:11:03;;;;;;;5.38;1.80;;;14.70;99.90;;;;;;5013525;28;20029;-64
2021/01/19 00:13:29;;;;;;;3.63;1.60;;;14.60;99.90;;;;;;5015002;28;20405;-64
2021/01/19 00:15:54;;;;;;;4.18;1.70;;;14.60;99.90;;;;;;5014687;28;20022;-64
2021/01/19 00:18:20;;;;;;;4.30;1.70;;;14.50;99.90;;;;;;5014845;28;20025;-64
2021/01/19 00:20:46;;;;;;;5.47;1.88;;;14.50;99.90;;;;;;5014680;28;20030;-65
2021/01/19 00:23:12;;;;;;;5.55;1.98;;;14.50;99.90;;;;;;5014812;28;20029;-64
2021/01/19 00:25:42;;;;;;;4.97;1.92;;;14.50;99.90;;;;;;5014481;28;20026;-65
2021/01/19 00:28:08;;;;;;;5.53;1.83;;;14.50;99.90;;;;;;5014795;28;20014;-64
2021/01/19 00:30:41;;;;;;;4.50;2.08;;;14.50;99.90;;;;;;5014398;28;20426;-64
2021/01/19 00:33:08;;;;;;;6.15;1.90;;;14.50;99.90;;;;;;5014506;28;20140;-64
2021/01/19 00:35:34;;;;;;;4.15;1.75;;;14.40;99.90;;;;;;5014336;28;20018;-64
2021/01/19 00:38:00;;;;;;;4.28;2.00;;;14.40;99.90;;;;;;5014912;28;20105;-65
2021/01/19 00:40:29;;;;;;;5.00;1.92;;;14.40;99.90;;;;;;5014577;28;20037;-61
2021/01/19 00:42:56;;;;;;;4.38;1.83;;;14.30;99.90;;;;;;5014147;28;20486;-60
2021/01/19 00:45:21;;;;;;;5.60;2.15;;;14.30;99.90;;;;;;5014453;28;20560;-60
2021/01/19 00:47:47;;;;;;;5.13;2.17;;;14.40;99.90;;;;;;5014109;28;20034;-61
2021/01/19 00:50:13;;;;;;;5.32;1.90;;;14.30;99.90;;;;;;5014426;28;20076;-60
2021/01/19 00:52:39;;;;;;;6.78;2.20;;;14.30;99.90;;;;;;5013910;28;20033;-60
2021/01/19 00:55:07;;;;;;;5.90;2.17;;;14.30;99.90;;;;;;5014153;28;20433;-62
2021/01/19 00:57:33;;;;;;;7.07;2.47;;;14.20;99.90;;;;;;5013985;28;20026;-61
2021/01/19 00:59:58;;;;;;;5.35;2.25;;;14.20;99.90;;;;;;5014430;28;20024;-64
2021/01/19 01:02:24;;;;;;;4.95;1.98;;;14.20;99.90;;;;;;5012289;28;20038;-63
2021/01/19 01:04:50;;;;;;;6.28;2.63;;;14.20;99.90;;;;;;5013801;28;20034;-63
2021/01/19 01:07:15;;;;;;;4.60;2.08;;;14.10;99.90;;;;;;5013977;28;20033;-61
2021/01/19 01:09:41;;;;;;;8.68;2.25;;;14.10;99.90;;;;;;5013688;28;20053;-61
2021/01/19 01:12:07;;;;;;;4.97;2.08;;;14.10;99.90;;;;;;5013809;28;20074;-60
2021/01/19 01:14:33;;;;;;;6.85;2.28;;;14.10;99.90;;;;;;5013788;28;20105;-61
2021/01/19 01:16:59;;;;;;;4.18;1.80;;;14.10;99.90;;;;;;5014034;28;20026;-61
2021/01/19 01:19:25;;;;;;;7.88;2.28;;;14.10;99.90;;;;;;5012902;28;20026;-62
2021/01/19 01:21:51;;;;;;;4.50;2.25;;;14.10;99.90;;;;;;5012262;28;20482;-61
2021/01/19 01:24:16;;;;;;;6.90;2.33;;;14.10;99.90;;;;;;5013720;28;20382;-61
2021/01/19 01:26:42;;;;;;;5.43;2.35;;;14.00;99.90;;;;;;5013419;28;20034;-61
2021/01/19 01:29:07;;;;;;;7.60;2.58;;;14.00;99.90;;;;;;5013500;28;20033;-64
2021/01/19 01:31:36;;;;;;;5.10;2.40;;;14.00;99.90;;;;;;5002706;28;20109;-65
2021/01/19 01:34:03;;;;;;;5.47;2.10;;;14.00;99.90;;;;;;4993768;28;20444;-60
2021/01/19 01:36:28;;;;;;;7.03;2.53;;;14.00;99.90;;;;;;4994216;28;20030;-62
2021/01/19 01:38:54;;;;;;;4.43;2.10;;;14.00;99.90;;;;;;4993694;28;20033;-62
2021/01/19 01:41:21;;;;;;;6.90;2.10;;;13.90;99.90;;;;;;4993775;28;20394;-59
2021/01/19 01:43:47;;;;;;;6.75;2.38;;;14.00;99.90;;;;;;4993461;28;20031;-60
2021/01/19 01:46:14;;;;;;;4.68;2.20;;;13.90;99.90;;;;;;4993743;28;20049;-60
2021/01/19 01:48:41;;;;;;;6.28;2.40;;;13.90;99.90;;;;;;4993423;28;20030;-65
2021/01/19 01:51:08;;;;;;;6.70;2.95;;;13.90;99.90;;;;;;4993495;28;20356;-66
2021/01/19 01:53:37;;;;;;;6.85;2.45;;;13.90;99.90;;;;;;4993126;28;20030;-68
2021/01/19 01:56:02;;;;;;;8.40;2.50;;;13.90;99.90;;;;;;4993501;28;20077;-68
2021/01/19 01:58:28;;;;;;;7.60;2.50;;;13.90;99.90;;;;;;4997068;28;20509;-66
2021/01/19 02:00:54;;;;;;;9.00;2.72;;;13.90;99.90;;;;;;5012671;28;20083;-66
2021/01/19 02:03:20;;;;;;;7.35;2.50;;;13.80;99.90;;;;;;5012767;28;20018;-64
2021/01/19 02:05:45;;;;;;;6.18;2.25;;;13.80;99.90;;;;;;5012525;28;20049;-65
2021/01/19 02:08:23;;;;;;;6.97;2.65;;;13.80;99.90;;;;;;5013001;28;20033;-68
2021/01/19 02:11:21;;;;;;;6.72;2.50;;;13.80;99.90;;;;;;5012605;28;20034;-67
2021/01/19 02:13:55;;;;;;;6.30;2.50;;;13.80;99.90;;;;;;5012607;28;20030;-64
2021/01/19 02:16:27;;;;;;;4.88;2.20;;;13.70;99.90;;;;;;5012707;28;20379;-63
2021/01/19 02:19:31;;;;;;;5.82;2.20;;;13.70;99.90;;;;;;5012259;28;20030;-66
2021/01/19 02:22:31;;;;;;;6.93;2.42;;;13.70;99.90;;;;;;5012999;28;20442;-66
2021/01/19 02:25:17;;;;;;;7.63;2.80;;;13.70;99.90;;;;;;5012478;28;20044;-66
2021/01/19 02:28:07;;;;;;;7.45;2.58;;;13.70;99.90;;;;;;5012289;28;20104;-66
2021/01/19 02:30:59;;;;;;;6.22;2.28;;;13.70;99.90;;;;;;5012154;28;20029;-65
2021/01/19 02:33:34;;;;;;;5.53;2.40;;;13.60;99.90;;;;;;5012348;28;20114;-64
2021/01/19 02:36:14;;;;;;;7.72;2.70;;;13.60;99.90;;;;;;5012631;28;20108;-64
2021/01/19 02:38:59;;;;;;;5.70;2.13;;;13.60;99.90;;;;;;5012238;28;20038;-64
2021/01/19 02:41:26;;;;;;;6.22;2.55;;;13.60;99.90;;;;;;5010294;28;20021;-65
2021/01/19 02:44:10;;;;;;;5.93;2.50;;;13.60;99.90;;;;;;5011973;28;20030;-65
2021/01/19 02:46:36;;;;;;;6.90;2.45;;;13.60;99.90;;;;;;5011874;28;20053;-65
2021/01/19 02:49:01;;;;;;;6.22;2.42;;;13.60;99.90;;;;;;5012438;28;20057;-66
2021/01/19 02:51:27;;;;;;;6.10;2.25;;;13.60;99.90;;;;;;5012216;28;20101;-62
2021/01/19 02:53:54;;;;;;;5.70;2.42;;;13.60;99.90;;;;;;5011872;28;20375;-61
2021/01/19 02:56:43;;;;;;;5.10;2.40;;;13.50;99.90;;;;;;5012159;28;20393;-61
2021/01/19 02:59:26;;;;;;;5.15;2.40;;;13.60;99.90;;;;;;4999337;28;20023;-63
2021/01/19 03:02:07;;;;;;;5.40;2.40;;;13.60;99.90;;;;;;4992145;28;20018;-62
2021/01/19 03:04:35;;;;;;;5.13;2.20;;;13.50;99.90;;;;;;4992081;28;20042;-66
2021/01/19 03:07:04;;;;;;;6.95;3.13;;;13.50;99.90;;;;;;4992458;28;20030;-60
2021/01/19 03:09:30;;;;;;;6.93;2.40;;;13.50;99.90;;;;;;4992422;28;20026;-64
2021/01/19 03:11:59;;;;;;;6.97;2.65;;;13.50;99.90;;;;;;4991872;28;20034;-61
2021/01/19 03:14:25;;;;;;;8.35;2.85;;;13.50;99.90;;;;;;4992178;28;20468;-60
2021/01/19 03:16:51;;;;;;;6.38;2.28;;;13.40;99.90;;;;;;4991905;28;20030;-62
2021/01/19 03:19:19;;;;;;;5.78;2.33;;;13.40;99.90;;;;;;4992080;28;20466;-64
2021/01/19 03:21:45;;;;;;;6.40;2.47;;;13.50;99.90;;;;;;4991777;28;20019;-63
2021/01/19 03:24:10;;;;;;;4.75;2.30;;;13.40;99.90;;;;;;5002277;28;20485;-66
2021/01/19 03:26:36;;;;;;;7.40;2.15;;;13.40;99.90;;;;;;5011363;28;20512;-64
2021/01/19 03:29:04;;;;;;;8.57;2.28;;;13.40;99.90;;;;;;5011801;28;20029;-61
2021/01/19 03:31:30;;;;;;;4.95;2.17;;;13.40;99.90;;;;;;5011777;28;20101;-63
2021/01/19 03:33:56;;;;;;;4.75;2.00;;;13.40;99.90;;;;;;5011506;28;20034;-62
2021/01/19 03:36:21;;;;;;;5.78;2.45;;;13.40;99.90;;;;;;5011356;28;20057;-61
2021/01/19 03:38:47;;;;;;;5.40;2.40;;;13.40;99.90;;;;;;5011251;28;20029;-59
2021/01/19 03:41:13;;;;;;;6.35;2.10;;;13.30;99.90;;;;;;5010802;28;20034;-61
2021/01/19 03:43:38;;;;;;;8.45;2.95;;;13.30;99.90;;;;;;5015240;28;20072;-62
2021/01/19 03:46:04;;;;;;;5.32;2.47;;;13.30;99.90;;;;;;5015371;28;20030;-62
2021/01/19 03:48:29;;;;;;;6.93;2.40;;;13.30;99.90;;;;;;5015656;28;20379;-62
2021/01/19 03:50:55;;;;;;;11.45;2.67;;;13.30;99.90;;;;;;5015151;28;20083;-64
2021/01/19 03:53:20;;;;;;;7.03;2.40;;;13.30;99.90;;;;;;5015158;28;20041;-66
2021/01/19 03:55:46;;;;;;;6.43;2.17;;;13.30;99.90;;;;;;4997368;28;20450;-60
2021/01/19 03:58:12;;;;;;;6.47;2.33;;;13.30;99.90;;;;;;4995716;28;20126;-62
2021/01/19 04:00:37;;;;;;;9.57;2.78;;;13.30;99.90;;;;;;4998519;28;20014;-61
2021/01/19 04:03:03;;;;;;;6.63;2.60;;;13.30;99.90;;;;;;5015201;28;20037;-59
2021/01/19 04:05:28;;;;;;;4.68;2.33;;;13.30;99.90;;;;;;5015421;28;20395;-62
2021/01/19 04:07:54;;;;;;;5.80;2.17;;;13.20;99.90;;;;;;5014933;28;20478;-63
2021/01/19 04:10:20;;;;;;;6.85;2.50;;;13.30;99.90;;;;;;5015257;28;20386;-64
2021/01/19 04:12:45;;;;;;;5.85;2.13;;;13.30;99.90;;;;;;5014698;28;20505;-63
2021/01/19 04:15:11;;;;;;;8.65;2.10;;;13.30;99.90;;;;;;5014941;28;20018;-65
2021/01/19 04:17:38;;;;;;;5.85;2.30;;;13.30;99.90;;;;;;5014730;28;20065;-64
2021/01/19 04:20:05;;;;;;;5.22;2.22;;;13.30;99.90;;;;;;5014827;28;20030;-65
2021/01/19 04:22:31;;;;;;;7.68;2.22;;;13.30;99.90;;;;;;5014943;28;20026;-65
2021/01/19 04:24:57;;;;;;;11.85;2.33;;;13.20;99.90;;;;;;4995544;28;20033;-66
2021/01/19 04:27:22;;;;;;;5.65;2.30;;;13.20;99.90;;;;;;4995116;28;20508;-67
2021/01/19 04:29:48;;;;;;;4.70;1.88;;;13.20;99.90;;;;;;4994895;28;20038;-67
2021/01/19 04:32:14;;;;;;;8.60;2.60;;;13.20;99.90;;;;;;4994897;28;20042;-66
2021/01/19 04:34:41;;;;;;;7.97;2.33;;;13.10;99.90;;;;;;4994779;28;20046;-66
2021/01/19 04:37:06;;;;;;;6.80;2.10;;;13.20;99.90;;;;;;4994952;28;20063;-66
2021/01/19 04:39:32;;;;;;;5.93;2.00;;;13.20;99.90;;;;;;4994923;28;20026;-61
2021/01/19 04:41:57;;;;;;;6.68;2.10;;;13.10;99.90;;;;;;5010737;28;20080;-65
2021/01/19 04:44:26;;;;;;;6.63;2.17;;;13.10;99.90;;;;;;5014382;28;20080;-66
2021/01/19 04:46:51;;;;;;;6.72;1.92;;;13.10;99.90;;;;;;5012337;28;20029;-67
2021/01/19 04:49:17;;;;;;;7.18;2.42;;;13.10;99.90;;;;;;5014266;28;20025;-65
2021/01/19 04:51:47;;;;;;;6.30;2.40;;;13.20;99.90;;;;;;5013554;28;20109;-66
2021/01/19 04:54:16;;;;;;;6.18;2.03;;;13.10;99.90;;;;;;5013121;28;20063;-66
2021/01/19 04:56:50;;;;;;;6.80;2.13;;;13.10;99.90;;;;;;5009116;28;20475;-68
2021/01/19 04:59:22;;;;;;;4.32;1.92;;;13.10;99.90;;;;;;4994656;28;20030;-68
2021/01/19 05:01:51;;;;;;;6.63;1.85;;;13.10;99.90;;;;;;4994186;28;20511;-63
2021/01/19 05:04:43;;;;;;;7.57;2.13;;;13.10;99.90;;;;;;4994296;28;20062;-66
2021/01/19 05:07:36;;;;;;;4.00;1.77;;;13.10;99.90;;;;;;4994589;28;20038;-66
2021/01/19 05:10:12;;;;;;;7.25;2.15;;;13.10;99.90;;;;;;4994484;28;20018;-60
2021/01/19 05:12:38;;;;;;;6.80;1.85;;;13.10;99.90;;;;;;5012647;28;20111;-66
2021/01/19 05:15:11;;;;;;;5.28;1.70;;;13.10;99.90;;;;;;5013931;28;20018;-65
2021/01/19 05:17:37;;;;;;;7.82;1.95;;;13.00;99.90;;;;;;5012490;28;20041;-65
2021/01/19 05:20:05;;;;;;;5.72;1.70;;;13.00;99.90;;;;;;5012120;28;20129;-65
2021/01/19 05:22:31;;;;;;;6.70;2.10;;;13.00;99.90;;;;;;5012140;28;20060;-65
2021/01/19 05:24:57;;;;;;;6.40;1.90;;;13.00;99.90;;;;;;5013796;28;20125;-66
2021/01/19 05:27:23;;;;;;;3.92;2.00;;;13.00;99.90;;;;;;5012435;28;20482;-66
2021/01/19 05:30:06;;;;;;;5.63;1.85;;;13.00;99.90;;;;;;5013309;28;20050;-66
2021/01/19 05:32:50;;;;;;;7.20;1.90;;;13.00;99.90;;;;;;5013352;28;20482;-64
2021/01/19 05:35:20;;;;;;;5.38;2.38;;;12.90;99.90;;;;;;5013562;28;20030;-68
2021/01/19 05:37:59;;;;;;;5.90;2.00;;;12.90;99.90;;;;;;5013351;28;20041;-67
2021/01/19 05:40:26;;;;;;;7.38;1.90;;;12.90;99.90;;;;;;5007795;28;20505;-68
2021/01/19 05:42:53;;;;;;;5.53;1.70;;;12.90;99.90;;;;;;4993511;28;20133;-61
2021/01/19 05:45:19;;;;;;;5.55;1.70;;;12.90;99.90;;;;;;4993736;28;20080;-61
2021/01/19 05:47:45;;;;;;;5.75;1.90;;;12.90;99.90;;;;;;4993361;28;20022;-63
2021/01/19 05:50:11;;;;;;;5.78;1.83;;;12.90;99.90;;;;;;4993736;28;20411;-59
2021/01/19 05:52:37;;;;;;;5.15;1.80;;;12.90;99.90;;;;;;4993242;28;20498;-62
2021/01/19 05:55:04;;;;;;;4.57;1.80;;;12.90;99.90;;;;;;4993588;28;20041;-60
2021/01/19 05:57:29;;;;;;;6.97;1.77;;;12.90;99.90;;;;;;4994729;28;20019;-60
2021/01/19 05:59:59;;;;;;;6.18;2.20;;;12.90;99.90;;;;;;4993637;28;20386;-60
2021/01/19 06:02:40;;;;;;;5.57;2.10;;;12.90;99.90;;;;;;5009032;28;20029;-60
2021/01/19 06:05:17;;;;;;;4.85;1.83;;;12.90;99.90;;;;;;4992678;28;20042;-63
2021/01/19 06:07:47;;;;;;;6.28;1.90;;;12.80;99.90;;;;;;4997990;28;20474;-61
2021/01/19 06:10:19;;;;;;;7.63;1.73;;;12.90;99.90;;;;;;5008749;28;20042;-64
2021/01/19 06:12:45;;;;;;;4.60;1.73;;;12.90;99.90;;;;;;5010390;28;20372;-61
2021/01/19 06:15:11;;;;;;;4.18;1.40;;;13.00;99.90;;;;;;5011414;28;20414;-61
2021/01/19 06:17:37;;;;;;;3.50;1.48;;;12.90;99.90;;;;;;5012482;28;20026;-61
2021/01/19 06:20:06;;;;;;;4.45;1.40;;;13.00;99.90;;;;;;5009347;28;20026;-61
2021/01/19 06:22:32;;;;;;;2.95;1.45;;;13.00;99.90;;;;;;5004266;28;20033;-60
2021/01/19 06:25:01;;;;;;;4.78;1.25;;;13.10;99.90;;;;;;4997720;28;20074;-63
2021/01/19 06:27:31;;;;;;;6.57;1.50;;;13.10;99.90;;;;;;4993511;28;20414;-68
2021/01/19 06:30:00;;;;;;;3.72;1.42;;;13.10;99.90;;;;;;4995277;28;20099;-69
2021/01/19 06:32:28;;;;;;;5.25;1.42;;;13.20;99.90;;;;;;5011975;28;20040;-67
2021/01/19 06:34:54;;;;;;;4.13;1.45;;;13.20;99.90;;;;;;5010094;28;20551;-63
2021/01/19 06:37:32;;;;;;;5.30;1.42;;;13.30;99.90;;;;;;4999060;28;20117;-66
2021/01/19 06:40:13;;;;;;;4.75;1.35;;;13.30;99.90;;;;;;4997158;28;20065;-65
2021/01/19 06:42:39;;;;;;;5.13;1.27;;;13.30;99.90;;;;;;5011634;28;20480;-66
2021/01/19 06:45:10;;;;;;;2.70;1.17;;;13.30;99.90;;;;;;5009162;28;20022;-67
2021/01/19 06:47:51;;;;;;;3.78;1.20;;;13.40;99.90;;;;;;5011975;28;20033;-65
2021/01/19 06:50:24;;;;;;;4.72;1.30;;;13.50;99.90;;;;;;5011091;28;20034;-63
2021/01/19 06:53:13;;;;;;;3.58;0.98;;;13.80;99.90;;;;;;5011694;28;20038;-60
2021/01/19 06:55:57;;;;;;;7.43;1.42;;;14.10;99.90;;;;;;5000175;28;20123;-59
2021/01/19 06:58:44;;;;;;;5.40;1.30;;;14.20;99.90;;;;;;5012102;28;20088;-57
2021/01/19 07:01:13;;;;;;;2.92;1.08;;;14.30;99.90;;;;;;5009523;28;20117;-64
2021/01/19 07:03:41;;;;;;;5.57;1.30;;;14.40;99.90;;;;;;5010956;28;20038;-65
2021/01/19 07:06:09;;;;;;;6.50;1.25;;;14.50;99.90;;;;;;5011269;28;20033;-61
2021/01/19 07:09:12;;;;;;;5.65;1.10;;;14.70;99.90;;;;;;5011284;28;20021;-65
2021/01/19 07:11:38;;;;;;;4.57;1.20;;;14.90;99.90;;;;;;5011829;28;20382;-64
2021/01/19 07:14:15;;;;;;;2.92;1.13;;;15.00;99.90;;;;;;5010642;28;20034;-66
2021/01/19 07:17:05;;;;;;;5.57;1.38;;;15.00;99.90;;;;;;5009949;28;20026;-66
2021/01/19 07:19:50;;;;;;;2.72;1.17;;;15.00;99.90;;;;;;5011163;28;20034;-65
2021/01/19 07:22:36;;;;;;;3.25;1.02;;;15.00;99.90;;;;;;5011546;28;20117;-67
2021/01/19 07:25:02;;;;;;;3.13;0.90;;;15.10;99.90;;;;;;5011852;28;20026;-64
2021/01/19 07:27:27;;;;;;;5.53;0.77;;;15.00;99.90;;;;;;5011768;28;20029;-65
2021/01/19 07:29:54;;;;;;;6.45;1.10;;;15.00;99.90;;;;;;5011439;28;20126;-64
2021/01/19 07:32:26;;;;;;;4.28;1.10;;;14.90;99.90;;;;;;5011785;28;20088;-69
2021/01/19 07:34:52;;;;;;;3.05;0.88;;;15.00;99.90;;;;;;5010658;28;20030;-68
2021/01/19 07:37:37;;;;;;;4.68;1.23;;;15.00;99.90;;;;;;5010603;28;20037;-68
2021/01/19 07:40:17;;;;;;;6.22;0.98;;;15.00;99.90;;;;;;5010351;28;20037;-61
2021/01/19 07:42:43;;;;;;;2.95;1.17;;;14.90;99.90;;;;;;5009461;28;20084;-61
2021/01/19 07:45:09;;;;;;;4.35;1.15;;;14.90;99.90;;;;;;5010273;28;20438;-65
2021/01/19 07:47:38;;;;;;;3.85;1.60;;;14.90;99.90;;;;;;4991789;28;20031;-67
2021/01/19 07:50:19;;;;;;;5.75;1.20;;;14.90;99.90;;;;;;4998500;28;20018;-69
2021/01/19 07:52:47;;;;;;;7.18;1.08;;;14.90;99.90;;;;;;5011074;28;20042;-68
2021/01/19 07:55:21;;;;;;;2.88;1.10;;;14.90;99.90;;;;;;5011268;28;20018;-69
2021/01/19 07:57:49;;;;;;;3.05;1.10;;;14.90;99.90;;;;;;5009977;28;20537;-67
2021/01/19 08:00:22;;;;;;;3.05;0.93;;;14.90;99.90;;;;;;5010616;28;20080;-66
2021/01/19 08:02:48;;;;;;;1.95;0.90;;;14.80;99.90;;;;;;5011029;28;20076;-70
2021/01/19 08:05:14;;;;;;;2.92;0.98;;;14.80;99.90;;;;;;5011007;28;20038;-70
2021/01/19 08:07:44;;;;;;;3.17;0.95;;;14.80;99.90;;;;;;5011156;28;20058;-70
2021/01/19 08:10:23;;;;;;;3.78;1.00;;;14.80;99.90;;;;;;5010447;28;20032;-69
2021/01/19 08:12:55;;;;;;;2.10;0.70;;;14.80;99.90;;;;;;4991544;28;20038;-69
2021/01/19 08:15:26;;;;;;;2.47;0.70;;;14.80;99.90;;;;;;4991499;28;20102;-66
2021/01/19 08:17:53;;;;;;;2.05;0.98;;;14.90;99.90;;;;;;4997988;28;20499;-66
2021/01/19 08:20:33;;;;;;;4.78;1.58;;;14.50;99.90;;;;;;5011335;28;20049;-67
2021/01/19 08:23:14;;;;;;;3.58;1.45;;;13.70;99.90;;;;;;5011272;28;20065;-63
2021/01/19 08:25:40;;;;;;;3.25;1.10;;;13.40;99.90;;;;;;5009546;28;20112;-60
2021/01/19 08:28:07;;;;;;;4.80;0.90;;;14.20;99.90;;;;;;5009765;28;20018;-61
2021/01/19 08:30:33;;;;;;;2.22;1.00;;;15.30;99.90;;;;;;5014805;28;20390;-59
2021/01/19 08:33:00;;;;;;;2.05;0.77;;;16.40;99.90;;;;;;5014631;28;20095;-61
2021/01/19 08:35:28;;;;;;;1.50;0.60;;;17.20;99.90;;;;;;5014732;28;20033;-60
2021/01/19 08:37:59;;;;;;;1.48;0.47;;;17.60;99.90;;;;;;5014099;28;20076;-64
2021/01/19 08:40:28;;;;;;;2.28;0.50;;;18.00;99.90;;;;;;5011722;28;20064;-61
2021/01/19 08:42:55;;;;;;;1.65;0.45;;;18.40;99.90;;;;;;5013608;28;20033;-61
2021/01/19 08:45:33;;;;;;;2.40;0.60;;;18.70;99.90;;;;;;5014183;28;20036;-60
2021/01/19 08:48:01;;;;;;;0.75;0.30;;;19.00;99.90;;;;;;5014598;28;20378;-63
2021/01/19 08:50:30;;;;;;;1.25;0.40;;;19.20;99.90;;;;;;5014185;28;20478;-66
2021/01/19 08:52:56;;;;;;;1.05;0.32;;;19.40;99.90;;;;;;5013390;28;20038;-66
2021/01/19 08:55:26;;;;;;;1.45;0.35;;;19.40;99.90;;;;;;5013332;28;20157;-66
2021/01/19 08:57:56;;;;;;;1.33;0.50;;;19.50;99.90;;;;;;5011549;28;20410;-66
2021/01/19 09:00:33;;;;;;;1.67;0.40;;;19.50;99.90;;;;;;5013718;28;20516;-65
2021/01/19 09:03:09;;;;;;;2.28;0.50;;;19.80;99.90;;;;;;5014128;28;20096;-64
2021/01/19 09:05:35;;;;;;;3.03;0.55;;;20.30;99.90;;;;;;5013400;28;20109;-65
2021/01/19 09:08:15;;;;;;;0.77;0.38;;;20.80;99.90;;;;;;5014436;28;20025;-66
2021/01/19 09:10:41;;;;;;;0.93;0.32;;;21.00;99.90;;;;;;5013740;28;20025;-64
2021/01/19 09:13:07;;;;;;;0.65;0.25;;;21.30;99.90;;;;;;5014079;28;20042;-64
2021/01/19 09:15:40;;;;;;;0.65;0.20;;;21.50;99.90;;;;;;5013887;28;20022;-64
2021/01/19 09:18:13;;;;;;;0.80;0.20;;;21.80;99.90;;;;;;5014020;28;20033;-64
2021/01/19 09:20:40;;;;;;;0.28;0.15;;;21.90;99.80;;;;;;5013768;28;20038;-66
2021/01/19 09:23:15;;;;;;;0.55;0.30;;;22.10;99.80;;;;;;5014006;28;20026;-66
2021/01/19 09:25:42;;;;;;;0.40;0.28;;;22.30;99.80;;;;;;5013648;28;20022;-67
2021/01/19 09:28:08;;;;;;;0.30;0.20;;;21.50;99.90;;;;;;5013844;28;20034;-67
2021/01/19 09:30:38;;;;;;;0.55;0.38;;;20.70;99.90;;;;;;5013398;28;20084;-66
2021/01/19 09:33:09;;;;;;;0.82;0.20;;;20.00;99.90;;;;;;5013451;28;20394;-65
2021/01/19 09:35:36;;;;;;;1.13;0.30;;;19.60;99.90;;;;;;5013498;28;20393;-66
2021/01/19 09:38:02;;;;;;;1.98;0.30;;;19.20;99.90;;;;;;5013845;28;20026;-66
2021/01/19 09:40:33;;;;;;;0.60;0.22;;;19.00;99.90;;;;;;5013337;28;20025;-65
2021/01/19 09:43:05;;;;;;;0.30;0.20;;;19.80;99.90;;;;;;5013821;28;20037;-65
2021/01/19 09:45:31;;;;;;;0.70;0.30;;;20.80;99.90;;;;;;5013805;28;20020;-72
2021/01/19 09:47:57;;;;;;;0.40;0.20;;;21.30;99.90;;;;;;5013226;28;20026;-65
2021/01/19 09:50:23;;;;;;;0.50;0.20;;;21.70;99.90;;;;;;5013026;28;20034;-64
2021/01/19 09:52:49;;;;;;;0.57;0.20;;;21.30;99.90;;;;;;5003944;28;20057;-66
2021/01/19 09:55:17;;;;;;;0.40;0.20;;;20.60;99.90;;;;;;4993725;28;20105;-66
2021/01/19 09:57:43;;;;;;;1.10;0.20;;;19.90;99.90;;;;;;4993369;28;20491;-66
2021/01/19 10:00:11;;;;;;;0.80;0.20;;;19.40;99.90;;;;;;4993773;28;20023;-67
2021/01/19 10:02:38;;;;;;;0.30;0.10;;;19.30;99.90;;;;;;4993276;28;20422;-66
2021/01/19 10:05:06;;;;;;;1.30;0.20;;;20.20;99.90;;;;;;5000052;28;20022;-66
2021/01/19 10:07:32;;;;;;;0.68;0.20;;;21.10;99.90;;;;;;5013221;28;20021;-63
2021/01/19 10:10:09;;;;;;;0.60;0.20;;;21.70;99.90;;;;;;5013364;28;20470;-65
2021/01/19 10:12:34;;;;;;;0.30;0.20;;;21.10;99.90;;;;;;5012591;28;20494;-65
2021/01/19 10:15:00;;;;;;;0.70;0.25;;;20.40;99.90;;;;;;5013284;28;20057;-69
2021/01/19 10:17:33;;;;;;;0.68;0.20;;;19.80;99.90;;;;;;5012928;28;20022;-64
2021/01/19 10:20:10;;;;;;;0.40;0.23;;;19.30;99.90;;;;;;5013506;28;20030;-65
2021/01/19 10:22:44;;;;;;;0.17;0.10;;;19.20;99.90;;;;;;5012042;28;20539;-65
2021/01/19 10:25:11;;;;;;;0.32;0.17;;;20.20;99.90;;;;;;5012735;28;20048;-66
2021/01/19 10:27:40;;;;;;;1.95;0.20;;;21.10;99.90;;;;;;5012502;28;20021;-65
2021/01/19 10:30:07;;;;;;;0.10;0.10;;;21.30;99.90;;;;;;5012767;28;20026;-65
2021/01/19 10:32:50;;;;;;;0.20;0.10;;;20.70;99.90;;;;;;5011705;28;20040;-64
2021/01/19 10:35:33;;;;;;;2.92;0.10;;;20.00;99.90;;;;;;4993015;28;20034;-64
2021/01/19 10:38:03;;;;;;;0.50;0.17;;;19.50;99.90;;;;;;4993301;28;20379;-64
2021/01/19 10:40:29;;;;;;;0.60;0.20;;;19.10;99.90;;;;;;4993234;28;20034;-63
2021/01/19 10:42:55;;;;;;;1.45;0.20;;;18.90;99.90;;;;;;4992999;28;20161;-62
2021/01/19 10:45:27;;;;;;;0.70;0.30;;;18.70;99.90;;;;;;4999078;28;20034;-65
2021/01/19 10:47:53;;;;;;;0.57;0.25;;;19.60;99.90;;;;;;5001814;28;20113;-65
2021/01/19 10:50:21;;;;;;;0.45;0.20;;;20.20;99.90;;;;;;4997301;28;20494;-64
2021/01/19 10:53:01;;;;;;;0.30;0.10;;;19.90;99.90;;;;;;5006230;28;20403;-64
2021/01/19 10:55:27;;;;;;;0.77;0.20;;;19.40;99.90;;;;;;4992647;28;20418;-67
2021/01/19 10:57:58;;;;;;;0.65;0.20;;;19.30;99.90;;;;;;4992123;28;20035;-65
2021/01/19 11:00:26;;;;;;;0.10;0.10;;;20.20;99.90;;;;;;4992491;28;20030;-66
2021/01/19 11:02:52;;;;;;;0.40;0.20;;;21.00;99.90;;;;;;4992142;28;20325;-68
2021/01/19 11:05:19;;;;;;;1.60;0.20;;;21.20;99.90;;;;;;4992417;28;20034;-66
2021/01/19 11:07:45;;;;;;;0.20;0.10;;;20.50;99.90;;;;;;4992258;28;20027;-64
2021/01/19 11:10:13;;;;;;;0.52;0.10;;;19.90;99.90;;;;;;4998352;28;20053;-65
2021/01/19 11:12:40;;;;;;;0.30;0.10;;;19.40;99.90;;;;;;4993580;28;20046;-66
2021/01/19 11:15:07;;;;;;;0.20;0.17;;;19.10;99.90;;;;;;4994631;28;20022;-66
2021/01/19 11:17:33;;;;;;;0.28;0.10;;;18.80;99.90;;;;;;5011720;28;20485;-66
2021/01/19 11:19:58;;;;;;;0.60;0.15;;;18.60;99.90;;;;;;5012332;28;20025;-66
2021/01/19 11:22:24;;;;;;;0.52;0.20;;;18.50;99.90;;;;;;5012119;28;20109;-66
2021/01/19 11:24:49;;;;;;;3.60;0.20;;;18.40;99.90;;;;;;5011856;28;20374;-64
2021/01/19 11:27:15;;;;;;;0.47;0.20;;;18.30;99.90;;;;;;5011796;28;20534;-65
2021/01/19 11:29:41;;;;;;;0.43;0.30;;;18.20;99.90;;;;;;5011268;28;20038;-65
2021/01/19 11:32:06;;;;;;;0.45;0.13;;;18.10;99.90;;;;;;5007133;28;20030;-64
2021/01/19 11:34:32;;;;;;;2.05;0.30;;;18.00;99.90;;;;;;5003833;28;20026;-63
2021/01/19 11:36:57;;;;;;;0.32;0.30;;;17.90;99.90;;;;;;5004345;28;20018;-66
2021/01/19 11:39:23;;;;;;;1.10;0.20;;;17.80;99.90;;;;;;5002426;28;20096;-66
2021/01/19 11:41:49;;;;;;;0.55;0.32;;;17.70;99.90;;;;;;5011441;28;20026;-73
2021/01/19 11:44:17;;;;;;;0.98;0.20;;;17.50;99.90;;;;;;5003988;28;20026;-66
2021/01/19 11:46:42;;;;;;;0.80;0.32;;;17.50;99.90;;;;;;4991601;28;20030;-66
2021/01/19 11:49:08;;;;;;;0.80;0.30;;;17.40;99.90;;;;;;4992051;28;20038;-72
2021/01/19 11:51:36;;;;;;;2.00;0.30;;;17.40;99.90;;;;;;5001612;28;20375;-75
2021/01/19 11:54:04;;;;;;;1.00;0.30;;;17.30;99.90;;;;;;5011495;28;20034;-64
2021/01/19 11:56:38;;;;;;;0.88;0.30;;;17.20;99.90;;;;;;5011629;28;20116;-71
2021/01/19 11:59:05;;;;;;;5.57;0.40;;;17.20;99.90;;;;;;5011568;28;20022;-74
2021/01/19 12:01:31;;;;;;;1.33;0.40;;;17.10;99.90;;;;;;4996070;28;20030;-76
2021/01/19 12:03:57;;;;;;;0.85;0.30;;;17.00;99.90;;;;;;5006490;28;20033;-71
2021/01/19 12:06:23;;;;;;;2.40;0.22;;;17.00;99.90;;;;;;5015496;28;20524;-74
2021/01/19 12:08:50;;;;;;;1.17;0.30;;;16.90;99.90;;;;;;5014995;28;20025;-65
2021/01/19 12:11:17;;;;;;;1.50;0.40;;;16.80;99.90;;;;;;5015377;28;20108;-67
2021/01/19 12:13:44;;;;;;;0.82;0.30;;;16.80;99.90;;;;;;5015093;28;20046;-67
2021/01/19 12:16:10;;;;;;;0.88;0.50;;;16.70;99.90;;;;;;5013676;28;20497;-74
2021/01/19 12:18:37;;;;;;;1.35;0.40;;;16.60;99.90;;;;;;5012060;28;20033;-72
2021/01/19 12:21:05;;;;;;;2.42;0.50;;;16.50;99.90;;;;;;5001791;28;20040;-68
2021/01/19 12:23:30;;;;;;;3.15;0.30;;;16.50;99.90;;;;;;5015487;28;20030;-70
2021/01/19 12:25:58;;;;;;;1.30;0.40;;;16.50;99.90;;;;;;5011926;28;20084;-70
2021/01/19 12:28:24;;;;;;;1.48;0.43;;;16.40;99.90;;;;;;5008685;28;20058;-67
2021/01/19 12:30:53;;;;;;;0.98;0.50;;;16.40;99.90;;;;;;4995168;28;20542;-70
2021/01/19 12:33:20;;;;;;;1.50;0.55;;;16.30;99.90;;;;;;4996162;28;20542;-70
2021/01/19 12:35:47;;;;;;;1.20;0.50;;;16.30;99.90;;;;;;4994998;28;20031;-70
2021/01/19 12:38:13;;;;;;;0.60;0.40;;;16.20;99.90;;;;;;4995143;28;20033;-70
2021/01/19 12:40:38;;;;;;;1.20;0.40;;;16.20;99.90;;;;;;4994760;28;20025;-69
2021/01/19 12:43:04;;;;;;;3.42;0.50;;;16.20;99.90;;;;;;4995032;28;20030;-67
2021/01/19 12:45:29;;;;;;;0.77;0.50;;;16.10;99.90;;;;;;4996341;28;20031;-66
2021/01/19 12:47:55;;;;;;;1.52;0.52;;;16.00;99.90;;;;;;4994737;28;20105;-67
2021/01/19 12:50:21;;;;;;;1.00;0.50;;;16.00;99.90;;;;;;4994946;28;20077;-69
2021/01/19 12:52:46;;;;;;;2.78;0.50;;;15.90;99.90;;;;;;4994540;28;20165;-68
2021/01/19 12:55:12;;;;;;;2.15;0.60;;;15.80;99.90;;;;;;4994980;28;20380;-70
2021/01/19 12:57:39;;;;;;;1.50;0.50;;;15.70;99.90;;;;;;4994666;28;20098;-66
2021/01/19 13:00:06;;;;;;;1.80;0.63;;;15.70;99.90;;;;;;4994824;28;20026;-69